Time;durP1;ratioP1;P1;durP2;ratioP2;P2;SDS_P1;SDS_P2;PMS_P1;PMS_P2;Temp;Humidity;BMP_temperature;BMP_pressure;BME280_temperature;BME280_humidity;BME280_pressure;Samples;Min_cycle;Max_cycle;Signal;HPM_P1;HPM_P2
2023/07/23 00:01:21;;;;;;;4.30;2.85;;;21.30;69.30;;;;;;5011214;28;20018;-69
2023/07/23 00:03:47;;;;;;;6.53;2.60;;;21.30;69.30;;;;;;5014485;28;20382;-70
2023/07/23 00:06:12;;;;;;;4.75;2.53;;;21.30;69.40;;;;;;5014184;28;20060;-68
2023/07/23 00:08:38;;;;;;;5.85;2.58;;;21.30;69.50;;;;;;5013955;28;20387;-70
2023/07/23 00:11:04;;;;;;;5.35;2.90;;;21.30;69.60;;;;;;5014482;28;20022;-70
2023/07/23 00:13:29;;;;;;;4.10;2.70;;;21.30;69.80;;;;;;5014599;28;20036;-70
2023/07/23 00:15:55;;;;;;;4.78;2.63;;;21.20;70.00;;;;;;5015194;28;20022;-69
2023/07/23 00:18:20;;;;;;;5.43;3.67;;;21.20;70.20;;;;;;5014332;28;20390;-70
2023/07/23 00:20:47;;;;;;;5.72;2.92;;;21.10;70.50;;;;;;5014620;28;20034;-70
2023/07/23 00:23:12;;;;;;;4.07;3.38;;;21.00;70.60;;;;;;5014088;28;20072;-70
2023/07/23 00:25:38;;;;;;;7.13;2.90;;;21.00;70.90;;;;;;5013967;28;20483;-70
2023/07/23 00:28:04;;;;;;;4.28;2.58;;;21.00;71.00;;;;;;5014023;28;20033;-70
2023/07/23 00:30:30;;;;;;;4.35;2.85;;;21.00;71.20;;;;;;4995741;28;20030;-70
2023/07/23 00:32:55;;;;;;;5.53;2.90;;;21.00;71.00;;;;;;5014086;28;20030;-70
2023/07/23 00:35:23;;;;;;;4.60;2.70;;;21.00;71.10;;;;;;4996385;28;20027;-70
2023/07/23 00:37:48;;;;;;;5.32;2.70;;;21.00;71.00;;;;;;4994287;28;20034;-70
2023/07/23 00:40:14;;;;;;;3.67;2.70;;;20.90;71.10;;;;;;4994319;28;20038;-70
2023/07/23 00:42:40;;;;;;;3.83;2.80;;;20.90;71.10;;;;;;4993808;28;20065;-69
2023/07/23 00:45:06;;;;;;;3.88;2.75;;;20.90;71.40;;;;;;4994264;28;20026;-69
2023/07/23 00:47:32;;;;;;;3.88;2.72;;;20.90;71.50;;;;;;4993785;28;20080;-69
2023/07/23 00:49:58;;;;;;;5.68;2.95;;;20.90;71.30;;;;;;4993928;28;20467;-69
2023/07/23 00:52:23;;;;;;;4.78;2.50;;;20.80;71.40;;;;;;4993488;28;20068;-69
2023/07/23 00:54:49;;;;;;;2.78;2.40;;;20.80;71.60;;;;;;4993782;28;20058;-69
2023/07/23 00:57:16;;;;;;;4.85;2.72;;;20.80;71.70;;;;;;4994351;28;20065;-69
2023/07/23 00:59:41;;;;;;;4.43;2.70;;;20.90;71.70;;;;;;4993367;28;20038;-69
2023/07/23 01:02:07;;;;;;;4.22;2.78;;;20.90;71.50;;;;;;4993605;28;20030;-69
2023/07/23 01:04:33;;;;;;;5.03;3.20;;;20.90;71.40;;;;;;4993596;28;20105;-69
2023/07/23 01:07:03;;;;;;;3.97;2.80;;;20.90;71.50;;;;;;4993761;28;20074;-69
2023/07/23 01:09:29;;;;;;;4.22;2.75;;;20.90;71.50;;;;;;4993210;28;20031;-69
2023/07/23 01:11:56;;;;;;;3.72;2.80;;;20.90;71.30;;;;;;4993816;28;20034;-69
2023/07/23 01:14:22;;;;;;;5.07;3.08;;;20.90;71.10;;;;;;4993254;28;20058;-70
2023/07/23 01:16:48;;;;;;;4.18;2.90;;;20.90;71.30;;;;;;4993994;28;20065;-69
2023/07/23 01:19:15;;;;;;;6.05;3.08;;;20.90;71.20;;;;;;5006335;28;20057;-69
2023/07/23 01:21:40;;;;;;;4.38;3.10;;;20.90;71.40;;;;;;5012526;28;20101;-69
2023/07/23 01:24:06;;;;;;;3.92;2.63;;;20.90;71.30;;;;;;5013288;28;20113;-69
2023/07/23 01:26:32;;;;;;;4.60;3.35;;;20.90;71.30;;;;;;5012619;28;20030;-68
2023/07/23 01:28:57;;;;;;;6.88;2.72;;;20.90;71.40;;;;;;5013385;28;20466;-68
2023/07/23 01:31:23;;;;;;;4.65;3.17;;;20.90;71.50;;;;;;5012985;28;20466;-69
2023/07/23 01:33:50;;;;;;;6.35;2.85;;;20.90;71.50;;;;;;5013352;28;20040;-69
2023/07/23 01:36:16;;;;;;;5.18;3.58;;;20.90;71.50;;;;;;5013223;28;20033;-70
2023/07/23 01:38:42;;;;;;;5.63;3.58;;;20.90;71.20;;;;;;5012322;28;20026;-69
2023/07/23 01:41:08;;;;;;;3.03;2.63;;;20.90;71.30;;;;;;5013120;28;20368;-68
2023/07/23 01:43:34;;;;;;;4.65;3.30;;;20.90;71.10;;;;;;5012243;28;20101;-69
2023/07/23 01:46:00;;;;;;;5.20;3.25;;;20.90;71.10;;;;;;5012728;28;20121;-68
2023/07/23 01:48:25;;;;;;;3.47;2.70;;;20.90;71.10;;;;;;5012582;28;20057;-69
2023/07/23 01:50:51;;;;;;;5.07;3.17;;;20.80;71.40;;;;;;5013078;28;20377;-70
2023/07/23 01:53:17;;;;;;;5.00;2.90;;;20.80;71.50;;;;;;5012885;28;20466;-69
2023/07/23 01:55:42;;;;;;;4.32;2.95;;;20.70;71.60;;;;;;5011951;28;20034;-70
2023/07/23 01:58:08;;;;;;;7.25;3.25;;;20.70;71.60;;;;;;5010194;28;20414;-69
2023/07/23 02:00:34;;;;;;;3.80;3.05;;;20.70;72.00;;;;;;5012800;28;20080;-70
2023/07/23 02:02:59;;;;;;;5.50;2.70;;;20.70;71.80;;;;;;5012792;28;20034;-69
2023/07/23 02:05:25;;;;;;;4.20;3.03;;;20.70;71.90;;;;;;5012674;28;20108;-69
2023/07/23 02:07:51;;;;;;;4.65;3.38;;;20.60;71.90;;;;;;5012569;28;20026;-69
2023/07/23 02:10:20;;;;;;;5.53;3.22;;;20.60;72.00;;;;;;5012599;28;20360;-69
2023/07/23 02:12:46;;;;;;;5.28;3.33;;;20.60;72.70;;;;;;5012410;28;20302;-70
2023/07/23 02:15:11;;;;;;;4.68;3.60;;;20.50;72.20;;;;;;5013093;28;20405;-69
2023/07/23 02:17:37;;;;;;;5.22;3.30;;;20.50;72.10;;;;;;5012320;28;20081;-69
2023/07/23 02:20:04;;;;;;;3.97;3.28;;;20.50;72.30;;;;;;5012450;28;20113;-69
2023/07/23 02:22:30;;;;;;;3.92;3.30;;;20.50;72.20;;;;;;5012135;28;20120;-71
2023/07/23 02:24:55;;;;;;;4.93;3.58;;;20.40;72.30;;;;;;5012395;28;20065;-69
2023/07/23 02:27:21;;;;;;;3.83;3.10;;;20.40;72.50;;;;;;5012615;28;20048;-69
2023/07/23 02:29:47;;;;;;;6.63;3.65;;;20.40;72.40;;;;;;5011870;28;20034;-69
2023/07/23 02:32:12;;;;;;;5.60;3.55;;;20.40;72.40;;;;;;5012561;28;20113;-69
2023/07/23 02:34:38;;;;;;;4.30;3.13;;;20.40;72.50;;;;;;5012164;28;20029;-69
2023/07/23 02:37:04;;;;;;;5.10;3.90;;;20.40;72.50;;;;;;5012479;28;20080;-69
2023/07/23 02:39:30;;;;;;;6.15;3.53;;;20.40;72.40;;;;;;5003572;28;20438;-69
2023/07/23 02:41:56;;;;;;;4.90;3.53;;;20.30;72.40;;;;;;4992811;28;20035;-69
2023/07/23 02:44:21;;;;;;;8.25;3.63;;;20.30;72.50;;;;;;4992827;28;20073;-69
2023/07/23 02:46:47;;;;;;;4.85;3.40;;;20.30;72.60;;;;;;4992443;28;20026;-69
2023/07/23 02:49:13;;;;;;;4.53;3.17;;;20.30;72.80;;;;;;4992838;28;20077;-69
2023/07/23 02:51:38;;;;;;;3.92;3.28;;;20.20;72.80;;;;;;4992513;28;20037;-69
2023/07/23 02:54:04;;;;;;;5.22;3.33;;;20.20;72.90;;;;;;4996524;28;20030;-69
2023/07/23 02:56:29;;;;;;;4.97;3.50;;;20.20;72.90;;;;;;4995686;28;20052;-70
2023/07/23 02:58:55;;;;;;;4.32;3.15;;;20.20;72.80;;;;;;4996286;28;20026;-69
2023/07/23 03:01:21;;;;;;;6.60;3.50;;;20.20;72.80;;;;;;4995955;28;20045;-69
2023/07/23 03:03:47;;;;;;;5.10;3.17;;;20.20;72.80;;;;;;4995730;28;20038;-68
2023/07/23 03:06:14;;;;;;;4.68;3.20;;;20.20;72.70;;;;;;4995875;28;20544;-69
2023/07/23 03:08:40;;;;;;;5.43;3.42;;;20.20;72.80;;;;;;4995746;28;20109;-71
2023/07/23 03:11:06;;;;;;;5.57;3.90;;;20.20;72.90;;;;;;4996055;28;20166;-70
2023/07/23 03:13:32;;;;;;;5.47;3.60;;;20.20;72.70;;;;;;4995668;28;20034;-69
2023/07/23 03:15:58;;;;;;;4.60;3.47;;;20.20;73.00;;;;;;4997049;28;20014;-70
2023/07/23 03:18:24;;;;;;;7.15;3.80;;;20.20;73.10;;;;;;4995661;28;20471;-69
2023/07/23 03:20:49;;;;;;;4.50;3.22;;;20.20;73.10;;;;;;4995252;28;20054;-70
2023/07/23 03:23:15;;;;;;;5.85;4.13;;;20.20;73.20;;;;;;4995746;28;20459;-69
2023/07/23 03:25:41;;;;;;;5.20;3.50;;;20.20;73.20;;;;;;4995112;28;20031;-69
2023/07/23 03:28:06;;;;;;;5.20;3.63;;;20.20;73.20;;;;;;4995540;28;20033;-69
2023/07/23 03:30:32;;;;;;;4.53;3.47;;;20.20;73.30;;;;;;4995193;28;20391;-70
2023/07/23 03:32:58;;;;;;;4.47;3.55;;;20.20;73.20;;;;;;4995697;28;20085;-70
2023/07/23 03:35:23;;;;;;;6.07;3.78;;;20.20;73.40;;;;;;4995399;28;20027;-69
2023/07/23 03:37:49;;;;;;;4.97;3.58;;;20.20;73.70;;;;;;4995164;28;20463;-70
2023/07/23 03:40:15;;;;;;;3.63;3.10;;;20.20;73.80;;;;;;4994238;28;20034;-70
2023/07/23 03:42:40;;;;;;;6.38;3.83;;;20.20;74.10;;;;;;4994840;28;20037;-70
2023/07/23 03:45:07;;;;;;;7.20;3.50;;;20.20;74.20;;;;;;4995486;28;20033;-70
2023/07/23 03:47:32;;;;;;;5.60;3.53;;;20.20;74.10;;;;;;4995269;28;20043;-70
2023/07/23 03:49:59;;;;;;;5.88;3.40;;;20.20;75.00;;;;;;4995050;28;20155;-70
2023/07/23 03:52:24;;;;;;;7.68;3.92;;;20.20;74.50;;;;;;4994970;28;20097;-70
2023/07/23 03:54:50;;;;;;;4.47;3.40;;;20.20;75.00;;;;;;4994553;28;20026;-69
2023/07/23 03:57:16;;;;;;;6.32;3.60;;;20.20;75.00;;;;;;4995116;28;20022;-70
2023/07/23 03:59:43;;;;;;;8.82;4.03;;;20.20;74.90;;;;;;4994711;28;20038;-69
2023/07/23 04:02:10;;;;;;;6.22;3.80;;;20.20;75.00;;;;;;4997384;28;20044;-69
2023/07/23 04:04:37;;;;;;;6.45;3.50;;;20.20;75.00;;;;;;5013116;28;20462;-68
2023/07/23 04:07:03;;;;;;;4.82;3.47;;;20.20;75.00;;;;;;5014696;28;20554;-69
2023/07/23 04:09:28;;;;;;;6.70;4.00;;;20.30;75.50;;;;;;4996829;28;20029;-69
2023/07/23 04:11:55;;;;;;;6.50;4.00;;;20.20;75.90;;;;;;5013842;28;20297;-69
2023/07/23 04:14:21;;;;;;;6.18;3.97;;;20.20;76.00;;;;;;5014121;28;20467;-69
2023/07/23 04:16:47;;;;;;;6.18;4.32;;;20.30;76.20;;;;;;5013955;28;20109;-69
2023/07/23 04:19:13;;;;;;;10.80;4.30;;;20.30;76.20;;;;;;5014289;28;20030;-69
2023/07/23 04:21:39;;;;;;;4.60;3.50;;;20.30;75.80;;;;;;5013914;28;20034;-69
2023/07/23 04:24:05;;;;;;;6.78;3.63;;;20.30;76.00;;;;;;5014137;28;20382;-69
2023/07/23 04:26:31;;;;;;;5.88;3.63;;;20.40;76.20;;;;;;5014426;28;20033;-69
2023/07/23 04:28:57;;;;;;;4.93;3.63;;;20.40;76.10;;;;;;5013476;28;20173;-69
2023/07/23 04:31:23;;;;;;;4.30;3.20;;;20.50;76.00;;;;;;5013892;28;20029;-69
2023/07/23 04:33:49;;;;;;;5.70;3.53;;;20.60;76.00;;;;;;5013329;28;20095;-69
2023/07/23 04:36:15;;;;;;;7.60;3.42;;;20.70;75.60;;;;;;5013945;28;20022;-69
2023/07/23 04:38:42;;;;;;;5.93;3.55;;;20.70;75.60;;;;;;5001996;28;20105;-69
2023/07/23 04:41:08;;;;;;;4.93;3.30;;;20.90;75.20;;;;;;4994637;28;20054;-70
2023/07/23 04:43:38;;;;;;;5.00;3.25;;;20.90;74.80;;;;;;4994265;28;20034;-70
2023/07/23 04:46:04;;;;;;;4.72;3.53;;;21.00;74.00;;;;;;4994111;28;20029;-69
2023/07/23 04:48:31;;;;;;;4.63;3.28;;;21.20;73.60;;;;;;4994190;28;20030;-69
2023/07/23 04:50:58;;;;;;;5.15;3.10;;;21.20;72.90;;;;;;4993751;28;20371;-70
2023/07/23 04:53:24;;;;;;;4.35;2.95;;;21.30;71.90;;;;;;4994115;28;20031;-70
2023/07/23 04:55:52;;;;;;;5.45;2.90;;;21.40;70.90;;;;;;4993327;28;20439;-69
2023/07/23 04:58:18;;;;;;;5.00;3.22;;;21.50;70.10;;;;;;4993908;28;20030;-69
2023/07/23 05:00:43;;;;;;;5.15;3.47;;;21.70;70.10;;;;;;4993287;28;20065;-69
2023/07/23 05:03:11;;;;;;;4.80;3.03;;;21.90;69.70;;;;;;4993873;28;20073;-70
2023/07/23 05:05:41;;;;;;;4.13;3.20;;;22.10;69.10;;;;;;4993582;28;20058;-69
2023/07/23 05:08:07;;;;;;;4.18;2.70;;;22.20;68.70;;;;;;4994004;28;20022;-70
2023/07/23 05:10:32;;;;;;;4.15;3.17;;;22.50;67.70;;;;;;4993763;28;20109;-69
2023/07/23 05:12:58;;;;;;;5.63;3.05;;;22.70;66.20;;;;;;4993408;28;20035;-69
2023/07/23 05:15:23;;;;;;;6.22;2.90;;;22.90;65.50;;;;;;4993373;28;20026;-69
2023/07/23 05:17:49;;;;;;;4.07;2.97;;;23.30;63.60;;;;;;4993383;28;20058;-70
2023/07/23 05:20:15;;;;;;;4.78;3.05;;;23.60;62.70;;;;;;4993738;28;20022;-69
2023/07/23 05:22:41;;;;;;;5.60;2.80;;;24.00;61.50;;;;;;4993118;28;20045;-69
2023/07/23 05:25:08;;;;;;;4.32;2.80;;;24.40;59.30;;;;;;4994718;28;20414;-69
2023/07/23 05:27:34;;;;;;;4.38;2.90;;;24.90;58.70;;;;;;4995507;28;20030;-69
2023/07/23 05:29:59;;;;;;;5.88;3.10;;;25.30;57.90;;;;;;5012783;28;20041;-69
2023/07/23 05:32:25;;;;;;;5.78;3.10;;;25.90;56.60;;;;;;5013050;28;20025;-71
2023/07/23 05:34:51;;;;;;;4.00;2.95;;;26.50;55.10;;;;;;5012812;28;20399;-69
2023/07/23 05:37:16;;;;;;;4.50;3.20;;;27.20;53.40;;;;;;5013093;28;20022;-68
2023/07/23 05:39:42;;;;;;;7.68;3.22;;;27.90;51.40;;;;;;5012660;28;20359;-69
2023/07/23 05:42:07;;;;;;;3.55;3.13;;;28.60;50.50;;;;;;5012977;28;20037;-69
2023/07/23 05:44:33;;;;;;;3.95;2.88;;;29.30;48.30;;;;;;5013010;28;20030;-69
2023/07/23 05:46:59;;;;;;;5.40;2.80;;;29.90;46.70;;;;;;5012352;28;20107;-69
2023/07/23 05:49:25;;;;;;;6.28;2.83;;;30.50;46.40;;;;;;5012925;28;20037;-69
2023/07/23 05:51:52;;;;;;;4.55;3.10;;;31.10;44.70;;;;;;5012466;28;20394;-69
2023/07/23 05:54:17;;;;;;;3.92;2.78;;;31.60;43.80;;;;;;5012895;28;20026;-69
2023/07/23 05:56:43;;;;;;;3.97;2.58;;;32.10;42.40;;;;;;5012515;28;20433;-69
2023/07/23 05:59:09;;;;;;;11.35;2.60;;;32.50;41.60;;;;;;5011442;28;20058;-69
2023/07/23 06:01:35;;;;;;;4.38;2.50;;;33.10;40.80;;;;;;5009732;28;20053;-69
2023/07/23 06:04:00;;;;;;;3.50;2.60;;;33.70;39.40;;;;;;5012326;28;20037;-69
2023/07/23 06:06:28;;;;;;;3.38;2.30;;;34.20;39.10;;;;;;5012871;28;20050;-69
2023/07/23 06:08:53;;;;;;;3.75;2.42;;;34.70;38.00;;;;;;5012063;28;20026;-70
2023/07/23 06:11:21;;;;;;;3.42;2.33;;;35.20;37.10;;;;;;5012414;28;20025;-70
2023/07/23 06:13:46;;;;;;;3.88;2.85;;;35.80;36.30;;;;;;5012043;28;20097;-70
2023/07/23 06:16:12;;;;;;;3.20;2.85;;;36.00;35.80;;;;;;5012788;28;20030;-70
2023/07/23 06:18:38;;;;;;;3.88;2.45;;;36.40;35.30;;;;;;5012390;28;20033;-70
2023/07/23 06:21:04;;;;;;;3.15;2.67;;;36.70;34.60;;;;;;5012228;28;20105;-70
2023/07/23 06:23:29;;;;;;;5.60;2.78;;;37.00;34.20;;;;;;5011192;28;20176;-69
2023/07/23 06:25:56;;;;;;;3.38;2.60;;;37.30;33.70;;;;;;5012360;28;20037;-70
2023/07/23 06:28:21;;;;;;;3.25;2.60;;;37.70;33.80;;;;;;5015952;28;20424;-70
2023/07/23 06:30:50;;;;;;;3.22;2.30;;;38.00;33.10;;;;;;5015773;28;20105;-71
2023/07/23 06:33:16;;;;;;;2.67;2.03;;;38.10;32.40;;;;;;5016429;28;20034;-70
2023/07/23 06:35:45;;;;;;;3.50;2.60;;;38.30;32.30;;;;;;5016524;28;20486;-70
2023/07/23 06:38:11;;;;;;;3.17;2.88;;;38.40;31.80;;;;;;5016122;28;20033;-70
2023/07/23 06:40:36;;;;;;;6.53;2.83;;;38.60;31.70;;;;;;5016449;28;20037;-70
2023/07/23 06:43:02;;;;;;;3.33;2.42;;;38.70;31.20;;;;;;5015681;28;20485;-70
2023/07/23 06:45:28;;;;;;;3.20;2.38;;;38.90;31.40;;;;;;4998174;28;20378;-70
2023/07/23 06:47:55;;;;;;;4.07;2.50;;;39.20;31.20;;;;;;4996002;28;20073;-70
2023/07/23 06:50:20;;;;;;;2.80;2.60;;;39.40;30.60;;;;;;4996513;28;20418;-70
2023/07/23 06:52:47;;;;;;;4.10;2.42;;;39.40;30.90;;;;;;4996518;28;20036;-70
2023/07/23 06:55:12;;;;;;;2.53;2.28;;;39.20;30.20;;;;;;4996615;28;20060;-69
2023/07/23 06:57:39;;;;;;;3.53;2.88;;;39.40;30.40;;;;;;4996301;28;20101;-69
2023/07/23 07:00:07;;;;;;;3.30;2.75;;;39.40;30.00;;;;;;4995703;28;20524;-70
2023/07/23 07:02:32;;;;;;;3.28;2.70;;;39.50;29.80;;;;;;4996022;28;20038;-70
2023/07/23 07:04:58;;;;;;;6.10;2.70;;;39.50;30.00;;;;;;4995781;28;20034;-70
2023/07/23 07:07:24;;;;;;;3.33;2.70;;;39.40;29.30;;;;;;4995579;28;20051;-70
2023/07/23 07:09:49;;;;;;;4.30;2.40;;;39.50;29.90;;;;;;4995718;28;20026;-69
2023/07/23 07:12:15;;;;;;;5.28;2.30;;;39.80;29.30;;;;;;4995938;28;20112;-69
2023/07/23 07:14:40;;;;;;;3.22;2.70;;;40.00;29.00;;;;;;4996163;28;20039;-70
2023/07/23 07:17:06;;;;;;;3.38;2.35;;;40.10;29.00;;;;;;4995578;28;20030;-70
2023/07/23 07:19:32;;;;;;;8.10;2.83;;;39.80;29.30;;;;;;4996118;28;20038;-68
2023/07/23 07:21:57;;;;;;;3.88;2.22;;;40.00;29.00;;;;;;4994048;28;20033;-70
2023/07/23 07:24:23;;;;;;;3.38;2.78;;;40.40;29.00;;;;;;4995771;28;20057;-70
2023/07/23 07:26:48;;;;;;;3.70;2.35;;;40.40;28.60;;;;;;4995642;28;20526;-70
2023/07/23 07:29:14;;;;;;;2.53;2.20;;;40.30;28.60;;;;;;4995197;28;20441;-70
2023/07/23 07:31:40;;;;;;;3.22;2.45;;;40.40;28.50;;;;;;4995875;28;20030;-70
2023/07/23 07:34:05;;;;;;;3.28;2.35;;;40.70;28.30;;;;;;5000721;28;20410;-70
2023/07/23 07:36:31;;;;;;;3.70;2.80;;;40.70;29.00;;;;;;5015194;28;20022;-69
2023/07/23 07:38:57;;;;;;;7.93;2.63;;;41.30;28.10;;;;;;5014126;28;20425;-70
2023/07/23 07:41:22;;;;;;;6.20;2.70;;;41.00;28.00;;;;;;5014922;28;20026;-70
2023/07/23 07:43:48;;;;;;;5.30;2.80;;;40.80;27.70;;;;;;5014562;28;20063;-70
2023/07/23 07:46:14;;;;;;;3.20;2.42;;;40.80;28.20;;;;;;5014303;28;20066;-69
2023/07/23 07:48:40;;;;;;;7.03;2.63;;;40.80;28.20;;;;;;5014732;28;20026;-69
2023/07/23 07:51:06;;;;;;;3.85;2.53;;;40.50;27.70;;;;;;5014416;28;20021;-71
2023/07/23 07:53:34;;;;;;;3.47;2.85;;;40.20;28.10;;;;;;5014753;28;20102;-70
2023/07/23 07:56:00;;;;;;;5.97;2.70;;;39.60;28.40;;;;;;4996550;28;20026;-71
2023/07/23 07:58:27;;;;;;;5.40;3.00;;;39.90;28.60;;;;;;5014708;28;20028;-71
2023/07/23 08:00:56;;;;;;;3.45;2.97;;;39.50;28.80;;;;;;5012469;28;20049;-71
2023/07/23 08:03:24;;;;;;;3.70;2.87;;;39.20;28.80;;;;;;4995070;28;20525;-70
2023/07/23 08:05:50;;;;;;;4.63;2.90;;;39.10;29.00;;;;;;4994993;28;20057;-69
2023/07/23 08:08:19;;;;;;;6.15;2.60;;;38.90;29.00;;;;;;4994774;28;20357;-71
2023/07/23 08:10:45;;;;;;;3.45;2.78;;;39.10;29.10;;;;;;4994743;28;20093;-71
2023/07/23 08:13:14;;;;;;;3.00;2.70;;;39.00;28.70;;;;;;4994730;28;20085;-71
2023/07/23 08:15:40;;;;;;;3.78;2.55;;;39.20;28.50;;;;;;4994453;28;20033;-69
2023/07/23 08:18:06;;;;;;;4.70;2.20;;;39.00;27.90;;;;;;4976800;28;20085;-71
2023/07/23 08:20:34;;;;;;;3.15;2.40;;;38.70;28.50;;;;;;4994706;28;20030;-69
2023/07/23 08:23:01;;;;;;;3.72;2.47;;;38.50;28.00;;;;;;4994069;28;20169;-70
2023/07/23 08:25:29;;;;;;;3.30;2.47;;;37.80;28.20;;;;;;4994263;28;20030;-70
2023/07/23 08:28:00;;;;;;;2.88;2.42;;;37.40;28.30;;;;;;4977113;28;20030;-70
2023/07/23 08:30:29;;;;;;;2.58;2.35;;;37.40;28.60;;;;;;4994592;28;20533;-70
2023/07/23 08:32:56;;;;;;;3.17;2.28;;;37.40;28.50;;;;;;4993823;28;20138;-70
2023/07/23 08:35:23;;;;;;;3.63;2.28;;;37.40;28.60;;;;;;4993801;28;20041;-70
2023/07/23 08:37:49;;;;;;;2.88;2.15;;;37.10;28.80;;;;;;4993929;28;20109;-70
2023/07/23 08:40:16;;;;;;;5.72;2.60;;;36.80;28.60;;;;;;4993847;28;20030;-70
2023/07/23 08:42:48;;;;;;;2.95;2.65;;;36.60;28.60;;;;;;4993688;28;20586;-70
2023/07/23 08:45:22;;;;;;;2.90;2.35;;;36.20;28.90;;;;;;4993739;28;20356;-70
2023/07/23 08:47:48;;;;;;;3.05;2.30;;;35.60;28.80;;;;;;4993954;28;20467;-70
2023/07/23 08:50:14;;;;;;;2.50;2.08;;;35.10;28.80;;;;;;4992998;28;20034;-70
2023/07/23 08:52:41;;;;;;;5.43;2.60;;;34.80;29.40;;;;;;4993926;28;20072;-70
2023/07/23 08:55:08;;;;;;;2.65;2.17;;;34.60;29.60;;;;;;4976095;28;20045;-70
2023/07/23 08:57:35;;;;;;;5.05;2.50;;;34.50;29.80;;;;;;4994132;28;20031;-70
2023/07/23 09:00:01;;;;;;;3.42;2.45;;;34.30;29.80;;;;;;4993434;28;20044;-70
2023/07/23 09:02:28;;;;;;;2.80;2.30;;;34.30;29.80;;;;;;4993512;28;20538;-70
2023/07/23 09:04:54;;;;;;;5.18;2.13;;;34.10;29.90;;;;;;4993540;28;20042;-70
2023/07/23 09:07:20;;;;;;;3.08;2.30;;;33.80;29.80;;;;;;4993446;28;20051;-70
2023/07/23 09:09:48;;;;;;;3.90;2.50;;;33.70;29.80;;;;;;4993811;28;20050;-70
2023/07/23 09:12:14;;;;;;;5.75;2.33;;;33.50;29.50;;;;;;4993436;28;20080;-70
2023/07/23 09:14:42;;;;;;;3.20;2.22;;;33.30;29.80;;;;;;4994057;28;20018;-70
2023/07/23 09:17:17;;;;;;;3.35;2.30;;;33.20;30.00;;;;;;4993044;28;20526;-70
2023/07/23 09:19:42;;;;;;;3.22;2.28;;;33.00;30.10;;;;;;4993775;28;20022;-70
2023/07/23 09:22:08;;;;;;;6.05;2.30;;;32.80;30.30;;;;;;4993199;28;20041;-70
2023/07/23 09:24:34;;;;;;;5.38;2.47;;;32.70;30.60;;;;;;4993672;28;20105;-70
2023/07/23 09:27:01;;;;;;;6.50;2.38;;;32.60;30.90;;;;;;4993455;28;20030;-70
2023/07/23 09:29:38;;;;;;;6.85;2.47;;;32.50;30.40;;;;;;4993252;28;20378;-69
2023/07/23 09:32:04;;;;;;;4.70;2.53;;;32.30;30.90;;;;;;4993234;28;20030;-70
2023/07/23 09:34:29;;;;;;;5.32;2.40;;;32.30;31.50;;;;;;4993546;28;20061;-69
2023/07/23 09:36:55;;;;;;;2.50;2.22;;;32.20;31.80;;;;;;4993079;28;20058;-69
2023/07/23 09:39:25;;;;;;;3.40;2.60;;;32.10;31.40;;;;;;4992587;28;20440;-70
2023/07/23 09:41:51;;;;;;;5.53;2.75;;;32.10;31.20;;;;;;4993069;28;20441;-69
2023/07/23 09:44:17;;;;;;;3.50;2.33;;;32.10;31.20;;;;;;5001162;28;20111;-69
2023/07/23 09:46:46;;;;;;;6.88;2.50;;;32.20;31.30;;;;;;5012490;28;20116;-70
2023/07/23 09:49:13;;;;;;;2.67;2.17;;;32.00;31.10;;;;;;5012225;28;20466;-69
2023/07/23 09:51:39;;;;;;;3.72;2.65;;;32.00;32.10;;;;;;5013057;28;20093;-69
2023/07/23 09:54:05;;;;;;;3.65;2.38;;;31.90;32.30;;;;;;5012351;28;20112;-69
2023/07/23 09:56:33;;;;;;;3.53;2.40;;;31.80;32.40;;;;;;5012570;28;20394;-69
2023/07/23 09:59:00;;;;;;;6.07;2.92;;;31.80;32.30;;;;;;5009544;28;20033;-69
2023/07/23 10:01:26;;;;;;;5.93;3.03;;;31.80;32.10;;;;;;5014692;28;20068;-69
2023/07/23 10:03:53;;;;;;;3.75;3.15;;;31.80;32.20;;;;;;5016957;28;20458;-70
2023/07/23 10:06:23;;;;;;;3.63;2.80;;;31.70;31.90;;;;;;5016109;28;20544;-70
2023/07/23 10:08:50;;;;;;;5.20;3.03;;;31.70;32.30;;;;;;5016897;28;20041;-70
2023/07/23 10:11:18;;;;;;;3.40;2.80;;;31.80;32.40;;;;;;5016250;28;20034;-70
2023/07/23 10:13:44;;;;;;;4.80;3.22;;;31.90;33.00;;;;;;5016533;28;20037;-70
2023/07/23 10:16:23;;;;;;;5.38;2.90;;;31.90;32.70;;;;;;5016132;28;20030;-70
2023/07/23 10:18:51;;;;;;;3.67;3.05;;;32.00;32.30;;;;;;5016486;28;20474;-70
2023/07/23 10:21:18;;;;;;;5.03;3.40;;;32.00;31.30;;;;;;4998515;28;20443;-70
2023/07/23 10:23:57;;;;;;;3.97;3.28;;;32.00;31.40;;;;;;5016518;28;20042;-70
2023/07/23 10:26:28;;;;;;;4.13;2.50;;;32.10;32.50;;;;;;5016040;28;20034;-70
2023/07/23 10:29:18;;;;;;;4.28;3.13;;;32.10;32.80;;;;;;5016551;28;20032;-70
2023/07/23 10:31:44;;;;;;;4.72;4.05;;;32.10;33.50;;;;;;5016585;28;20038;-70
2023/07/23 10:34:22;;;;;;;5.63;4.32;;;32.00;33.00;;;;;;5016320;28;20037;-70
2023/07/23 10:37:26;;;;;;;3.88;2.85;;;32.00;33.10;;;;;;5016341;28;20030;-70
2023/07/23 10:39:55;;;;;;;5.53;2.90;;;32.00;33.70;;;;;;4936372;29;20036;-70
2023/07/23 10:42:36;;;;;;;3.80;2.67;;;32.00;33.70;;;;;;4935866;29;20401;-69
2023/07/23 10:45:20;;;;;;;4.45;2.75;;;31.90;33.30;;;;;;4916959;29;20046;-70
2023/07/23 10:47:55;;;;;;;6.32;3.00;;;31.90;33.40;;;;;;4901450;29;20028;-70
2023/07/23 10:50:21;;;;;;;3.80;2.97;;;31.90;33.60;;;;;;4916819;29;20067;-70
2023/07/23 10:53:07;;;;;;;3.47;2.90;;;31.80;32.90;;;;;;4917083;29;20040;-70
2023/07/23 10:55:45;;;;;;;3.05;2.67;;;31.80;33.10;;;;;;4917083;29;20062;-69
2023/07/23 10:58:15;;;;;;;3.67;2.72;;;31.70;32.70;;;;;;4916645;29;20043;-70
2023/07/23 11:00:51;;;;;;;3.10;2.72;;;31.70;32.50;;;;;;4917238;29;20039;-70
2023/07/23 11:03:18;;;;;;;4.88;2.55;;;31.70;32.40;;;;;;4900670;29;20052;-69
2023/07/23 11:05:45;;;;;;;4.20;2.90;;;31.70;32.30;;;;;;4916777;29;20052;-70
2023/07/23 11:08:14;;;;;;;5.00;3.00;;;31.80;32.40;;;;;;4916535;29;20035;-70
2023/07/23 11:10:53;;;;;;;4.32;2.92;;;31.90;32.70;;;;;;4958474;28;20317;-70
2023/07/23 11:13:21;;;;;;;4.32;2.75;;;32.00;32.70;;;;;;4995130;28;20034;-70
2023/07/23 11:15:47;;;;;;;3.20;2.90;;;32.10;31.70;;;;;;4995985;28;20109;-70
2023/07/23 11:18:13;;;;;;;5.25;3.38;;;32.10;31.60;;;;;;4995573;28;20035;-70
2023/07/23 11:20:50;;;;;;;3.38;2.38;;;32.10;31.00;;;;;;4995708;28;20088;-70
2023/07/23 11:23:17;;;;;;;4.57;2.75;;;32.20;31.20;;;;;;4995224;28;20041;-70
2023/07/23 11:25:50;;;;;;;4.50;2.72;;;32.20;31.00;;;;;;4995901;28;20062;-70
2023/07/23 11:28:18;;;;;;;4.38;2.63;;;32.30;31.50;;;;;;4995106;28;20038;-69
2023/07/23 11:30:43;;;;;;;3.83;3.10;;;32.30;32.60;;;;;;4995682;28;20038;-69
2023/07/23 11:33:12;;;;;;;3.85;3.05;;;32.40;32.50;;;;;;4995029;28;20026;-70
2023/07/23 11:35:38;;;;;;;4.93;2.63;;;32.50;32.30;;;;;;4995862;28;20383;-70
2023/07/23 11:38:05;;;;;;;5.15;2.63;;;32.50;32.40;;;;;;4995673;28;20084;-70
2023/07/23 11:40:31;;;;;;;3.45;2.72;;;32.40;32.50;;;;;;4995125;28;20034;-70
2023/07/23 11:43:02;;;;;;;3.35;2.70;;;32.40;32.40;;;;;;4995304;28;20038;-70
2023/07/23 11:45:27;;;;;;;5.03;2.95;;;32.40;32.50;;;;;;4994781;28;20035;-70
2023/07/23 11:47:54;;;;;;;4.13;3.33;;;32.50;32.50;;;;;;4995802;28;20034;-70
2023/07/23 11:50:21;;;;;;;5.40;3.10;;;32.50;31.70;;;;;;4994840;28;20030;-69
2023/07/23 11:52:51;;;;;;;3.30;2.80;;;32.40;30.80;;;;;;4994843;28;20527;-69
2023/07/23 11:55:20;;;;;;;6.13;3.13;;;32.40;31.40;;;;;;4994959;28;20030;-69
2023/07/23 11:57:54;;;;;;;4.00;2.97;;;32.50;32.10;;;;;;5013822;28;20033;-69
2023/07/23 12:00:39;;;;;;;4.70;2.75;;;32.50;32.40;;;;;;5014334;28;20108;-69
2023/07/23 12:03:09;;;;;;;3.78;3.13;;;32.50;31.90;;;;;;5014635;28;20030;-69
2023/07/23 12:05:41;;;;;;;4.20;2.80;;;32.40;31.30;;;;;;5014184;28;20026;-69
2023/07/23 12:08:07;;;;;;;4.15;2.53;;;32.30;31.80;;;;;;5014323;28;20049;-69
2023/07/23 12:10:33;;;;;;;4.13;2.90;;;32.20;32.00;;;;;;5014141;28;20069;-69
2023/07/23 12:13:09;;;;;;;3.80;2.90;;;32.10;32.20;;;;;;5014434;28;20130;-69
2023/07/23 12:15:37;;;;;;;4.35;3.20;;;32.10;32.40;;;;;;5014048;28;20037;-69
2023/07/23 12:18:03;;;;;;;3.17;2.63;;;32.10;31.60;;;;;;5014342;28;20382;-69
2023/07/23 12:20:28;;;;;;;5.85;3.10;;;32.10;31.90;;;;;;5013973;28;20035;-70
2023/07/23 12:22:56;;;;;;;4.65;3.45;;;32.10;32.50;;;;;;5014053;28;20038;-70
2023/07/23 12:25:24;;;;;;;6.00;3.17;;;32.00;32.10;;;;;;5013405;28;20085;-70
2023/07/23 12:27:50;;;;;;;3.97;3.10;;;32.00;32.60;;;;;;5014454;28;20414;-70
2023/07/23 12:30:17;;;;;;;3.25;2.88;;;31.90;32.90;;;;;;5013911;28;20034;-70
2023/07/23 12:32:44;;;;;;;3.85;3.15;;;31.90;32.80;;;;;;5014249;28;20044;-70
2023/07/23 12:35:10;;;;;;;3.08;2.75;;;31.80;33.00;;;;;;5014080;28;20030;-70
2023/07/23 12:37:35;;;;;;;5.78;3.17;;;31.70;33.20;;;;;;5007977;28;20022;-70
2023/07/23 12:40:04;;;;;;;3.78;3.05;;;31.70;33.30;;;;;;4994044;28;20109;-70
2023/07/23 12:42:30;;;;;;;3.55;2.85;;;31.70;32.90;;;;;;4976402;28;20034;-70
2023/07/23 12:44:56;;;;;;;2.85;2.50;;;31.60;33.00;;;;;;4994266;28;20105;-70
2023/07/23 12:47:22;;;;;;;4.90;3.25;;;31.50;33.70;;;;;;4994155;28;20217;-70